sensor_id;sensor_type;location;lat;lon;timestamp;pressure;altitude;pressure_sealevel;temperature;humidity
77279;BME280;66332;50.436;15.378;2024-03-02T00:02:14;97121.66;;;8.69;100.00
77279;BME280;66332;50.436;15.378;2024-03-02T00:06:55;97122.31;;;8.84;100.00
77279;BME280;66332;50.436;15.378;2024-03-02T00:11:36;97123.13;;;8.85;100.00
77279;BME280;66332;50.436;15.378;2024-03-02T00:16:17;97117.88;;;8.78;100.00
77279;BME280;66332;50.436;15.378;2024-03-02T00:20:59;97126.72;;;8.77;100.00
77279;BME280;66332;50.436;15.378;2024-03-02T00:25:43;97130.34;;;8.76;100.00
77279;BME280;66332;50.436;15.378;2024-03-02T00:30:42;97118.66;;;8.79;100.00
77279;BME280;66332;50.436;15.378;2024-03-02T00:35:27;97131.34;;;8.75;100.00
77279;BME280;66332;50.436;15.378;2024-03-02T00:40:08;97135.38;;;8.71;100.00
77279;BME280;66332;50.436;15.378;2024-03-02T00:44:49;97129.94;;;8.72;100.00
77279;BME280;66332;50.436;15.378;2024-03-02T00:49:29;97141.41;;;8.65;100.00
77279;BME280;66332;50.436;15.378;2024-03-02T00:54:10;97140.00;;;8.69;100.00
77279;BME280;66332;50.436;15.378;2024-03-02T00:58:52;97140.59;;;8.64;100.00
77279;BME280;66332;50.436;15.378;2024-03-02T01:03:34;97133.31;;;8.66;100.00
77279;BME280;66332;50.436;15.378;2024-03-02T01:08:15;97126.06;;;8.62;100.00
77279;BME280;66332;50.436;15.378;2024-03-02T01:12:56;97139.75;;;8.64;100.00
77279;BME280;66332;50.436;15.378;2024-03-02T01:17:37;97129.09;;;8.65;100.00
77279;BME280;66332;50.436;15.378;2024-03-02T01:22:18;97122.81;;;8.60;100.00
77279;BME280;66332;50.436;15.378;2024-03-02T01:27:05;97115.75;;;8.60;100.00
77279;BME280;66332;50.436;15.378;2024-03-02T01:31:46;97123.22;;;8.63;100.00
77279;BME280;66332;50.436;15.378;2024-03-02T01:36:27;97122.56;;;8.55;100.00
77279;BME280;66332;50.436;15.378;2024-03-02T01:41:07;97117.97;;;8.57;100.00
77279;BME280;66332;50.436;15.378;2024-03-02T01:45:48;97108.44;;;8.49;100.00
77279;BME280;66332;50.436;15.378;2024-03-02T01:50:31;97108.69;;;8.54;100.00
77279;BME280;66332;50.436;15.378;2024-03-02T01:55:12;97109.88;;;8.52;100.00
77279;BME280;66332;50.436;15.378;2024-03-02T01:59:53;97113.69;;;8.49;100.00
77279;BME280;66332;50.436;15.378;2024-03-02T02:04:34;97110.91;;;8.57;100.00
77279;BME280;66332;50.436;15.378;2024-03-02T02:09:15;97116.50;;;8.47;100.00
77279;BME280;66332;50.436;15.378;2024-03-02T02:13:58;97113.09;;;8.47;100.00
77279;BME280;66332;50.436;15.378;2024-03-02T02:18:39;97115.09;;;8.52;100.00
77279;BME280;66332;50.436;15.378;2024-03-02T02:23:20;97114.31;;;8.58;100.00
77279;BME280;66332;50.436;15.378;2024-03-02T02:28:01;97117.25;;;8.76;100.00
77279;BME280;66332;50.436;15.378;2024-03-02T02:32:42;97103.69;;;8.66;100.00
77279;BME280;66332;50.436;15.378;2024-03-02T02:37:23;97106.56;;;8.71;100.00
77279;BME280;66332;50.436;15.378;2024-03-02T02:42:04;97100.06;;;8.67;100.00
77279;BME280;66332;50.436;15.378;2024-03-02T02:46:45;97100.28;;;8.72;100.00
77279;BME280;66332;50.436;15.378;2024-03-02T02:51:26;97098.28;;;8.67;100.00
77279;BME280;66332;50.436;15.378;2024-03-02T02:56:07;97100.06;;;8.67;100.00
77279;BME280;66332;50.436;15.378;2024-03-02T03:00:47;97107.91;;;8.67;100.00
77279;BME280;66332;50.436;15.378;2024-03-02T03:05:28;97105.50;;;8.65;100.00
77279;BME280;66332;50.436;15.378;2024-03-02T03:10:09;97102.28;;;8.70;100.00
77279;BME280;66332;50.436;15.378;2024-03-02T03:14:50;97102.13;;;8.71;100.00
77279;BME280;66332;50.436;15.378;2024-03-02T03:19:31;97105.94;;;8.69;100.00
77279;BME280;66332;50.436;15.378;2024-03-02T03:24:12;97110.75;;;8.65;100.00
77279;BME280;66332;50.436;15.378;2024-03-02T03:28:53;97117.84;;;8.71;100.00
77279;BME280;66332;50.436;15.378;2024-03-02T03:33:33;97111.56;;;8.66;100.00
77279;BME280;66332;50.436;15.378;2024-03-02T03:38:15;97118.41;;;8.67;100.00
77279;BME280;66332;50.436;15.378;2024-03-02T03:42:55;97111.28;;;8.54;100.00
77279;BME280;66332;50.436;15.378;2024-03-02T03:47:37;97120.41;;;8.58;100.00
77279;BME280;66332;50.436;15.378;2024-03-02T03:52:18;97120.16;;;8.53;100.00
77279;BME280;66332;50.436;15.378;2024-03-02T03:56:58;97128.25;;;8.58;100.00
77279;BME280;66332;50.436;15.378;2024-03-02T04:01:39;97126.59;;;8.50;100.00
77279;BME280;66332;50.436;15.378;2024-03-02T04:06:20;97132.84;;;8.49;100.00
77279;BME280;66332;50.436;15.378;2024-03-02T04:11:01;97130.88;;;8.58;100.00
77279;BME280;66332;50.436;15.378;2024-03-02T04:15:43;97133.28;;;8.60;100.00
77279;BME280;66332;50.436;15.378;2024-03-02T04:20:24;97143.22;;;8.64;100.00
77279;BME280;66332;50.436;15.378;2024-03-02T04:25:06;97140.19;;;8.67;100.00
77279;BME280;66332;50.436;15.378;2024-03-02T04:29:47;97146.84;;;8.70;100.00
77279;BME280;66332;50.436;15.378;2024-03-02T04:34:28;97144.03;;;8.71;100.00
77279;BME280;66332;50.436;15.378;2024-03-02T04:39:09;97145.50;;;8.81;100.00
77279;BME280;66332;50.436;15.378;2024-03-02T04:43:50;97160.00;;;8.77;100.00
77279;BME280;66332;50.436;15.378;2024-03-02T04:48:31;97159.38;;;8.75;100.00
77279;BME280;66332;50.436;15.378;2024-03-02T04:53:12;97166.63;;;8.72;100.00
77279;BME280;66332;50.436;15.378;2024-03-02T04:57:52;97167.03;;;8.76;100.00
77279;BME280;66332;50.436;15.378;2024-03-02T05:02:35;97173.31;;;8.82;100.00
77279;BME280;66332;50.436;15.378;2024-03-02T05:07:16;97167.66;;;8.78;100.00
77279;BME280;66332;50.436;15.378;2024-03-02T05:11:56;97170.66;;;8.75;100.00
77279;BME280;66332;50.436;15.378;2024-03-02T05:16:57;97174.88;;;8.69;100.00
77279;BME280;66332;50.436;15.378;2024-03-02T05:21:38;97181.44;;;8.52;100.00
77279;BME280;66332;50.436;15.378;2024-03-02T05:26:19;97191.91;;;8.52;100.00
77279;BME280;66332;50.436;15.378;2024-03-02T05:31:00;97184.00;;;8.45;100.00
77279;BME280;66332;50.436;15.378;2024-03-02T05:35:41;97182.88;;;8.33;100.00
77279;BME280;66332;50.436;15.378;2024-03-02T05:40:21;97187.13;;;8.34;100.00
77279;BME280;66332;50.436;15.378;2024-03-02T05:45:03;97196.34;;;8.30;100.00
77279;BME280;66332;50.436;15.378;2024-03-02T05:49:43;97193.97;;;8.35;100.00
77279;BME280;66332;50.436;15.378;2024-03-02T05:54:24;97194.09;;;8.27;100.00
77279;BME280;66332;50.436;15.378;2024-03-02T05:59:05;97203.78;;;8.26;100.00
77279;BME280;66332;50.436;15.378;2024-03-02T06:03:56;97209.47;;;8.37;100.00
77279;BME280;66332;50.436;15.378;2024-03-02T06:08:38;97209.81;;;8.27;100.00
77279;BME280;66332;50.436;15.378;2024-03-02T06:13:18;97212.31;;;8.35;100.00
77279;BME280;66332;50.436;15.378;2024-03-02T06:17:59;97214.38;;;8.40;100.00
77279;BME280;66332;50.436;15.378;2024-03-02T06:22:40;97227.09;;;8.43;100.00
77279;BME280;66332;50.436;15.378;2024-03-02T06:27:21;97230.81;;;8.34;100.00
77279;BME280;66332;50.436;15.378;2024-03-02T06:32:02;97241.63;;;8.45;100.00
77279;BME280;66332;50.436;15.378;2024-03-02T06:36:43;97231.53;;;8.42;100.00
77279;BME280;66332;50.436;15.378;2024-03-02T06:41:24;97232.16;;;8.44;100.00
77279;BME280;66332;50.436;15.378;2024-03-02T06:46:05;97243.44;;;8.45;100.00
77279;BME280;66332;50.436;15.378;2024-03-02T06:50:47;97246.31;;;8.50;100.00
77279;BME280;66332;50.436;15.378;2024-03-02T06:55:30;97253.25;;;8.64;100.00
77279;BME280;66332;50.436;15.378;2024-03-02T07:00:12;97257.63;;;8.57;100.00
77279;BME280;66332;50.436;15.378;2024-03-02T07:04:56;97266.38;;;8.64;100.00
77279;BME280;66332;50.436;15.378;2024-03-02T07:09:36;97268.88;;;8.79;100.00
77279;BME280;66332;50.436;15.378;2024-03-02T07:14:17;97262.59;;;8.73;100.00
77279;BME280;66332;50.436;15.378;2024-03-02T07:18:58;97258.97;;;8.75;100.00
77279;BME280;66332;50.436;15.378;2024-03-02T07:23:39;97252.56;;;8.84;100.00
77279;BME280;66332;50.436;15.378;2024-03-02T07:28:20;97265.06;;;8.82;100.00
77279;BME280;66332;50.436;15.378;2024-03-02T07:33:01;97256.38;;;8.81;100.00
77279;BME280;66332;50.436;15.378;2024-03-02T07:37:42;97252.69;;;9.04;100.00
77279;BME280;66332;50.436;15.378;2024-03-02T07:42:23;97268.63;;;9.02;100.00
77279;BME280;66332;50.436;15.378;2024-03-02T07:47:04;97269.31;;;9.17;100.00
77279;BME280;66332;50.436;15.378;2024-03-02T07:51:45;97281.19;;;9.13;100.00
77279;BME280;66332;50.436;15.378;2024-03-02T07:56:26;97278.25;;;9.36;100.00
77279;BME280;66332;50.436;15.378;2024-03-02T08:01:07;97281.66;;;9.30;100.00
77279;BME280;66332;50.436;15.378;2024-03-02T08:05:48;97288.38;;;9.39;100.00
77279;BME280;66332;50.436;15.378;2024-03-02T08:10:29;97294.00;;;9.36;100.00
77279;BME280;66332;50.436;15.378;2024-03-02T08:15:09;97292.66;;;9.47;100.00
77279;BME280;66332;50.436;15.378;2024-03-02T08:19:50;97300.34;;;9.55;100.00
77279;BME280;66332;50.436;15.378;2024-03-02T08:24:32;97297.31;;;9.58;100.00
77279;BME280;66332;50.436;15.378;2024-03-02T08:29:13;97296.03;;;9.34;100.00
77279;BME280;66332;50.436;15.378;2024-03-02T08:33:53;97302.34;;;9.47;100.00
77279;BME280;66332;50.436;15.378;2024-03-02T08:38:34;97289.22;;;9.47;99.93
77279;BME280;66332;50.436;15.378;2024-03-02T08:43:15;97290.78;;;9.34;100.00
77279;BME280;66332;50.436;15.378;2024-03-02T08:47:56;97302.38;;;9.53;100.00
77279;BME280;66332;50.436;15.378;2024-03-02T08:52:37;97299.50;;;9.41;100.00
77279;BME280;66332;50.436;15.378;2024-03-02T08:57:18;97303.97;;;9.54;100.00
77279;BME280;66332;50.436;15.378;2024-03-02T09:01:59;97304.41;;;9.64;100.00
77279;BME280;66332;50.436;15.378;2024-03-02T09:06:39;97308.94;;;9.77;100.00
77279;BME280;66332;50.436;15.378;2024-03-02T09:11:21;97314.28;;;9.56;100.00
77279;BME280;66332;50.436;15.378;2024-03-02T09:16:02;97312.50;;;9.63;100.00
77279;BME280;66332;50.436;15.378;2024-03-02T09:20:44;97314.75;;;9.73;100.00
77279;BME280;66332;50.436;15.378;2024-03-02T09:25:26;97316.81;;;9.77;99.39
77279;BME280;66332;50.436;15.378;2024-03-02T09:30:08;97315.00;;;9.91;98.28
77279;BME280;66332;50.436;15.378;2024-03-02T09:34:50;97316.66;;;9.99;99.65
77279;BME280;66332;50.436;15.378;2024-03-02T09:39:31;97319.31;;;10.05;97.16
77279;BME280;66332;50.436;15.378;2024-03-02T09:44:12;97319.69;;;10.02;99.79
77279;BME280;66332;50.436;15.378;2024-03-02T09:48:53;97318.09;;;10.01;97.07
77279;BME280;66332;50.436;15.378;2024-03-02T09:53:34;97311.03;;;10.02;96.96
77279;BME280;66332;50.436;15.378;2024-03-02T09:58:15;97321.94;;;10.12;96.90
77279;BME280;66332;50.436;15.378;2024-03-02T10:02:55;97314.06;;;10.19;96.71
77279;BME280;66332;50.436;15.378;2024-03-02T10:07:39;97316.28;;;10.15;95.67
77279;BME280;66332;50.436;15.378;2024-03-02T10:12:19;97309.66;;;10.26;96.44
77279;BME280;66332;50.436;15.378;2024-03-02T10:17:08;97313.91;;;10.27;95.17
77279;BME280;66332;50.436;15.378;2024-03-02T10:21:54;97309.69;;;10.32;96.27
77279;BME280;66332;50.436;15.378;2024-03-02T10:26:35;97306.03;;;10.40;94.09
77279;BME280;66332;50.436;15.378;2024-03-02T10:31:16;97310.72;;;10.45;94.91
77279;BME280;66332;50.436;15.378;2024-03-02T10:35:57;97302.63;;;10.33;94.70
77279;BME280;66332;50.436;15.378;2024-03-02T10:40:38;97304.41;;;10.26;93.86
77279;BME280;66332;50.436;15.378;2024-03-02T10:45:20;97300.19;;;10.51;92.65
77279;BME280;66332;50.436;15.378;2024-03-02T10:50:04;97295.34;;;10.62;93.28
77279;BME280;66332;50.436;15.378;2024-03-02T10:54:48;97303.41;;;10.80;90.32
77279;BME280;66332;50.436;15.378;2024-03-02T10:59:36;97294.13;;;10.64;90.87
77279;BME280;66332;50.436;15.378;2024-03-02T11:04:21;97295.53;;;10.67;90.45
77279;BME280;66332;50.436;15.378;2024-03-02T11:09:06;97295.56;;;10.60;91.24
77279;BME280;66332;50.436;15.378;2024-03-02T11:13:50;97289.47;;;10.79;91.25
77279;BME280;66332;50.436;15.378;2024-03-02T11:18:31;97288.03;;;10.97;89.35
77279;BME280;66332;50.436;15.378;2024-03-02T11:23:13;97289.28;;;10.74;90.08
77279;BME280;66332;50.436;15.378;2024-03-02T11:32:35;97286.25;;;10.64;92.11
77279;BME280;66332;50.436;15.378;2024-03-02T11:37:17;97274.72;;;10.78;90.16
77279;BME280;66332;50.436;15.378;2024-03-02T11:41:59;97278.97;;;10.73;93.18
77279;BME280;66332;50.436;15.378;2024-03-02T11:46:40;97283.03;;;10.62;91.59
77279;BME280;66332;50.436;15.378;2024-03-02T11:51:21;97277.78;;;10.62;92.95
77279;BME280;66332;50.436;15.378;2024-03-02T11:56:02;97277.50;;;11.03;92.03
77279;BME280;66332;50.436;15.378;2024-03-02T12:00:43;97270.66;;;10.96;93.26
77279;BME280;66332;50.436;15.378;2024-03-02T12:05:25;97274.63;;;11.25;90.18
77279;BME280;66332;50.436;15.378;2024-03-02T12:10:07;97268.59;;;12.08;92.14
77279;BME280;66332;50.436;15.378;2024-03-02T12:14:52;97258.38;;;11.35;89.97
77279;BME280;66332;50.436;15.378;2024-03-02T12:19:35;97257.38;;;11.36;90.10
77279;BME280;66332;50.436;15.378;2024-03-02T12:24:16;97258.72;;;11.52;89.84
77279;BME280;66332;50.436;15.378;2024-03-02T12:28:57;97250.25;;;11.43;89.15
77279;BME280;66332;50.436;15.378;2024-03-02T12:33:40;97254.66;;;11.56;89.75
77279;BME280;66332;50.436;15.378;2024-03-02T12:38:22;97257.81;;;11.71;90.23
77279;BME280;66332;50.436;15.378;2024-03-02T12:43:06;97250.38;;;11.61;90.87
77279;BME280;66332;50.436;15.378;2024-03-02T12:47:47;97249.84;;;11.46;90.91
77279;BME280;66332;50.436;15.378;2024-03-02T12:52:28;97256.97;;;11.77;91.99
77279;BME280;66332;50.436;15.378;2024-03-02T12:57:09;97246.72;;;11.69;91.83
77279;BME280;66332;50.436;15.378;2024-03-02T13:01:51;97237.31;;;11.80;90.29
77279;BME280;66332;50.436;15.378;2024-03-02T13:06:32;97233.69;;;11.74;90.38
77279;BME280;66332;50.436;15.378;2024-03-02T13:11:15;97232.31;;;12.10;90.36
77279;BME280;66332;50.436;15.378;2024-03-02T13:15:56;97227.31;;;11.95;89.81
77279;BME280;66332;50.436;15.378;2024-03-02T13:20:37;97228.41;;;11.87;90.52
77279;BME280;66332;50.436;15.378;2024-03-02T13:25:19;97226.22;;;11.71;91.66
77279;BME280;66332;50.436;15.378;2024-03-02T13:30:02;97233.88;;;11.79;91.20
77279;BME280;66332;50.436;15.378;2024-03-02T13:34:43;97218.44;;;11.89;91.25
77279;BME280;66332;50.436;15.378;2024-03-02T13:39:24;97220.34;;;11.76;91.97
77279;BME280;66332;50.436;15.378;2024-03-02T13:44:05;97215.53;;;11.66;94.54
77279;BME280;66332;50.436;15.378;2024-03-02T13:48:46;97221.19;;;11.69;93.37
77279;BME280;66332;50.436;15.378;2024-03-02T13:53:26;97216.28;;;11.73;94.09
77279;BME280;66332;50.436;15.378;2024-03-02T13:58:08;97213.44;;;11.75;92.86
77279;BME280;66332;50.436;15.378;2024-03-02T14:02:49;97207.59;;;11.73;92.97
77279;BME280;66332;50.436;15.378;2024-03-02T14:07:31;97212.38;;;11.82;93.33
77279;BME280;66332;50.436;15.378;2024-03-02T14:12:12;97217.41;;;11.97;92.35
77279;BME280;66332;50.436;15.378;2024-03-02T14:16:54;97208.09;;;11.94;92.05
77279;BME280;66332;50.436;15.378;2024-03-02T14:21:36;97210.34;;;11.91;91.49
77279;BME280;66332;50.436;15.378;2024-03-02T14:26:17;97204.47;;;11.89;91.00
77279;BME280;66332;50.436;15.378;2024-03-02T14:30:58;97197.44;;;12.08;91.83
77279;BME280;66332;50.436;15.378;2024-03-02T14:35:41;97208.03;;;12.01;90.41
77279;BME280;66332;50.436;15.378;2024-03-02T14:40:22;97203.13;;;12.05;90.66
77279;BME280;66332;50.436;15.378;2024-03-02T14:45:06;97204.91;;;11.86;91.08
77279;BME280;66332;50.436;15.378;2024-03-02T14:49:46;97202.22;;;11.92;90.94
77279;BME280;66332;50.436;15.378;2024-03-02T14:54:27;97195.41;;;11.78;90.62
77279;BME280;66332;50.436;15.378;2024-03-02T14:59:08;97208.78;;;11.77;91.48
77279;BME280;66332;50.436;15.378;2024-03-02T15:03:51;97198.75;;;11.60;92.86
77279;BME280;66332;50.436;15.378;2024-03-02T15:08:31;97195.75;;;11.57;93.45
77279;BME280;66332;50.436;15.378;2024-03-02T15:13:13;97192.78;;;11.40;95.08
77279;BME280;66332;50.436;15.378;2024-03-02T15:17:54;97188.72;;;11.37;94.16
77279;BME280;66332;50.436;15.378;2024-03-02T15:22:35;97198.47;;;11.37;94.38
77279;BME280;66332;50.436;15.378;2024-03-02T15:27:16;97193.56;;;11.40;93.48
77279;BME280;66332;50.436;15.378;2024-03-02T15:31:57;97187.84;;;11.50;92.98
77279;BME280;66332;50.436;15.378;2024-03-02T15:36:38;97179.75;;;11.52;93.27
77279;BME280;66332;50.436;15.378;2024-03-02T15:41:18;97180.44;;;11.34;94.38
77279;BME280;66332;50.436;15.378;2024-03-02T15:45:59;97182.47;;;11.38;93.84
77279;BME280;66332;50.436;15.378;2024-03-02T15:50:40;97175.84;;;11.29;95.72
77279;BME280;66332;50.436;15.378;2024-03-02T15:55:21;97187.63;;;11.13;98.44
77279;BME280;66332;50.436;15.378;2024-03-02T16:00:03;97178.50;;;11.16;98.80
77279;BME280;66332;50.436;15.378;2024-03-02T16:04:45;97176.22;;;10.81;99.95
77279;BME280;66332;50.436;15.378;2024-03-02T16:09:26;97179.22;;;10.85;100.00
77279;BME280;66332;50.436;15.378;2024-03-02T16:14:07;97174.81;;;10.72;100.00
77279;BME280;66332;50.436;15.378;2024-03-02T16:18:48;97192.34;;;10.91;100.00
77279;BME280;66332;50.436;15.378;2024-03-02T16:23:28;97178.22;;;10.79;100.00
77279;BME280;66332;50.436;15.378;2024-03-02T16:28:09;97184.91;;;10.82;100.00
77279;BME280;66332;50.436;15.378;2024-03-02T16:32:50;97186.72;;;10.81;100.00
77279;BME280;66332;50.436;15.378;2024-03-02T16:37:31;97188.72;;;10.86;100.00
77279;BME280;66332;50.436;15.378;2024-03-02T16:42:12;97187.50;;;10.88;100.00
77279;BME280;66332;50.436;15.378;2024-03-02T16:46:52;97197.44;;;10.79;100.00
77279;BME280;66332;50.436;15.378;2024-03-02T16:51:42;97196.44;;;10.74;100.00
77279;BME280;66332;50.436;15.378;2024-03-02T16:56:24;97194.03;;;10.72;100.00
77279;BME280;66332;50.436;15.378;2024-03-02T17:01:05;97196.66;;;10.66;100.00
77279;BME280;66332;50.436;15.378;2024-03-02T17:05:46;97206.56;;;10.64;100.00
77279;BME280;66332;50.436;15.378;2024-03-02T17:10:27;97202.75;;;10.53;100.00
77279;BME280;66332;50.436;15.378;2024-03-02T17:15:08;97201.94;;;10.39;100.00
77279;BME280;66332;50.436;15.378;2024-03-02T17:19:49;97204.78;;;10.38;100.00
77279;BME280;66332;50.436;15.378;2024-03-02T17:24:30;97212.44;;;10.19;100.00
77279;BME280;66332;50.436;15.378;2024-03-02T17:29:11;97215.47;;;10.09;100.00
77279;BME280;66332;50.436;15.378;2024-03-02T17:33:52;97216.25;;;10.10;100.00
77279;BME280;66332;50.436;15.378;2024-03-02T17:38:33;97217.69;;;9.99;100.00
77279;BME280;66332;50.436;15.378;2024-03-02T17:43:14;97213.03;;;10.01;100.00
77279;BME280;66332;50.436;15.378;2024-03-02T17:47:55;97209.81;;;9.93;100.00
77279;BME280;66332;50.436;15.378;2024-03-02T17:52:36;97219.28;;;9.94;100.00
77279;BME280;66332;50.436;15.378;2024-03-02T17:57:16;97220.09;;;10.01;100.00
77279;BME280;66332;50.436;15.378;2024-03-02T18:01:57;97214.88;;;10.07;100.00
77279;BME280;66332;50.436;15.378;2024-03-02T18:06:38;97220.31;;;10.06;100.00
77279;BME280;66332;50.436;15.378;2024-03-02T18:11:19;97217.47;;;9.94;100.00
77279;BME280;66332;50.436;15.378;2024-03-02T18:16:04;97223.50;;;9.88;100.00
77279;BME280;66332;50.436;15.378;2024-03-02T18:20:45;97217.22;;;9.76;100.00
77279;BME280;66332;50.436;15.378;2024-03-02T18:25:26;97217.44;;;9.74;100.00
77279;BME280;66332;50.436;15.378;2024-03-02T18:30:07;97214.59;;;9.76;100.00
77279;BME280;66332;50.436;15.378;2024-03-02T18:34:50;97219.00;;;9.55;100.00
77279;BME280;66332;50.436;15.378;2024-03-02T18:39:31;97219.19;;;9.47;100.00
77279;BME280;66332;50.436;15.378;2024-03-02T18:44:12;97216.56;;;9.47;100.00
77279;BME280;66332;50.436;15.378;2024-03-02T18:48:53;97222.22;;;9.51;100.00
77279;BME280;66332;50.436;15.378;2024-03-02T18:53:34;97221.59;;;9.49;100.00
77279;BME280;66332;50.436;15.378;2024-03-02T18:58:15;97222.19;;;9.44;100.00
77279;BME280;66332;50.436;15.378;2024-03-02T19:02:56;97225.25;;;9.48;100.00
77279;BME280;66332;50.436;15.378;2024-03-02T19:07:37;97231.06;;;9.43;100.00
77279;BME280;66332;50.436;15.378;2024-03-02T19:12:18;97229.66;;;9.40;100.00
77279;BME280;66332;50.436;15.378;2024-03-02T19:16:59;97234.06;;;9.40;100.00
77279;BME280;66332;50.436;15.378;2024-03-02T19:21:40;97236.94;;;9.45;100.00
77279;BME280;66332;50.436;15.378;2024-03-02T19:26:21;97235.91;;;9.46;100.00
77279;BME280;66332;50.436;15.378;2024-03-02T19:31:02;97236.13;;;9.45;100.00
77279;BME280;66332;50.436;15.378;2024-03-02T19:35:44;97231.66;;;9.38;100.00
77279;BME280;66332;50.436;15.378;2024-03-02T19:40:25;97234.69;;;9.35;100.00
77279;BME280;66332;50.436;15.378;2024-03-02T19:45:06;97224.41;;;9.40;100.00
77279;BME280;66332;50.436;15.378;2024-03-02T19:49:47;97220.34;;;9.31;100.00
77279;BME280;66332;50.436;15.378;2024-03-02T19:54:29;97215.88;;;9.25;100.00
77279;BME280;66332;50.436;15.378;2024-03-02T19:59:09;97216.31;;;9.35;100.00
77279;BME280;66332;50.436;15.378;2024-03-02T20:03:52;97216.47;;;9.27;100.00
77279;BME280;66332;50.436;15.378;2024-03-02T20:08:33;97213.06;;;9.33;100.00
77279;BME280;66332;50.436;15.378;2024-03-02T20:13:14;97211.31;;;9.40;100.00
77279;BME280;66332;50.436;15.378;2024-03-02T20:17:56;97212.91;;;9.41;100.00
77279;BME280;66332;50.436;15.378;2024-03-02T20:22:37;97210.84;;;9.37;100.00
77279;BME280;66332;50.436;15.378;2024-03-02T20:27:18;97211.47;;;9.39;100.00
77279;BME280;66332;50.436;15.378;2024-03-02T20:32:02;97213.47;;;9.37;100.00
77279;BME280;66332;50.436;15.378;2024-03-02T20:36:44;97207.03;;;9.33;100.00
77279;BME280;66332;50.436;15.378;2024-03-02T20:41:24;97204.22;;;9.34;100.00
77279;BME280;66332;50.436;15.378;2024-03-02T20:46:06;97204.41;;;9.33;100.00
77279;BME280;66332;50.436;15.378;2024-03-02T20:50:48;97200.16;;;9.32;100.00
77279;BME280;66332;50.436;15.378;2024-03-02T20:55:28;97208.06;;;9.45;100.00
77279;BME280;66332;50.436;15.378;2024-03-02T21:00:10;97204.22;;;9.34;100.00
77279;BME280;66332;50.436;15.378;2024-03-02T21:04:51;97199.16;;;9.33;100.00
77279;BME280;66332;50.436;15.378;2024-03-02T21:09:32;97194.13;;;9.38;100.00
77279;BME280;66332;50.436;15.378;2024-03-02T21:14:13;97197.34;;;9.33;100.00
77279;BME280;66332;50.436;15.378;2024-03-02T21:18:54;97194.31;;;9.36;100.00
77279;BME280;66332;50.436;15.378;2024-03-02T21:23:35;97189.59;;;9.18;100.00
77279;BME280;66332;50.436;15.378;2024-03-02T21:28:16;97186.41;;;9.23;100.00
77279;BME280;66332;50.436;15.378;2024-03-02T21:32:57;97198.72;;;9.23;100.00
77279;BME280;66332;50.436;15.378;2024-03-02T21:37:38;97191.44;;;9.25;100.00
77279;BME280;66332;50.436;15.378;2024-03-02T21:42:19;97185.38;;;9.17;100.00
77279;BME280;66332;50.436;15.378;2024-03-02T21:47:00;97179.75;;;9.21;100.00
77279;BME280;66332;50.436;15.378;2024-03-02T21:51:41;97183.41;;;9.26;100.00
77279;BME280;66332;50.436;15.378;2024-03-02T21:56:21;97174.63;;;9.06;100.00
77279;BME280;66332;50.436;15.378;2024-03-02T22:01:03;97177.22;;;8.99;100.00
77279;BME280;66332;50.436;15.378;2024-03-02T22:05:44;97173.41;;;8.95;100.00
77279;BME280;66332;50.436;15.378;2024-03-02T22:10:25;97171.19;;;8.99;100.00
77279;BME280;66332;50.436;15.378;2024-03-02T22:15:06;97165.75;;;9.07;100.00
77279;BME280;66332;50.436;15.378;2024-03-02T22:19:47;97169.59;;;9.04;100.00
77279;BME280;66332;50.436;15.378;2024-03-02T22:24:27;97174.19;;;8.89;100.00
77279;BME280;66332;50.436;15.378;2024-03-02T22:29:08;97171.56;;;8.95;100.00
77279;BME280;66332;50.436;15.378;2024-03-02T22:33:49;97171.75;;;8.94;100.00
77279;BME280;66332;50.436;15.378;2024-03-02T22:38:30;97168.34;;;9.00;100.00
77279;BME280;66332;50.436;15.378;2024-03-02T22:43:11;97163.31;;;8.92;100.00
77279;BME280;66332;50.436;15.378;2024-03-02T22:47:52;97167.50;;;8.86;100.00
77279;BME280;66332;50.436;15.378;2024-03-02T22:52:34;97166.31;;;8.89;100.00
77279;BME280;66332;50.436;15.378;2024-03-02T22:57:16;97166.50;;;8.87;100.00
77279;BME280;66332;50.436;15.378;2024-03-02T23:01:59;97165.28;;;8.90;100.00
77279;BME280;66332;50.436;15.378;2024-03-02T23:06:40;97166.25;;;8.82;100.00
77279;BME280;66332;50.436;15.378;2024-03-02T23:11:21;97166.44;;;8.74;100.00
77279;BME280;66332;50.436;15.378;2024-03-02T23:16:02;97164.84;;;8.80;100.00
77279;BME280;66332;50.436;15.378;2024-03-02T23:20:43;97156.13;;;8.72;100.00
77279;BME280;66332;50.436;15.378;2024-03-02T23:25:24;97161.22;;;8.81;100.00
77279;BME280;66332;50.436;15.378;2024-03-02T23:30:05;97150.06;;;8.65;100.00
77279;BME280;66332;50.436;15.378;2024-03-02T23:34:46;97138.41;;;8.75;100.00
77279;BME280;66332;50.436;15.378;2024-03-02T23:39:28;97137.59;;;8.67;100.00
77279;BME280;66332;50.436;15.378;2024-03-02T23:44:47;97128.72;;;8.75;100.00
77279;BME280;66332;50.436;15.378;2024-03-02T23:49:27;97123.69;;;8.73;100.00
77279;BME280;66332;50.436;15.378;2024-03-02T23:54:08;97120.63;;;8.63;100.00
77279;BME280;66332;50.436;15.378;2024-03-02T23:58:49;97117.97;;;8.57;100.00
